Aérodrome :
LOGIN :

S'inscrire | Disclaimer

   EN    FR    IT 

 










Légende :    VFR   VFR Marginal   IFR   IFR Intensif   IFR Très Intensif
Visi : 
Plafond : 
>= 8 km
>= 3000ft
5 à 8 km
1000 à 3000 ft
1500m à 5 km
500 à 1000 ft
800 à 1500m
200 à 500 ft
< 800m
< 200 ft
Symboles :   Orages  Brouillard  Fortes neiges  Fortes précipitations  Vent > 20 kt
SIGMETs :   Divers  Orages  Givrage  Turbulence  Onde Orograph.  Cendres Volcan.







- Altitude de l'aérodrome : 184 ft
- Code IATA : BRU


EBBR - Bruxelles

DERNIER METAR :
  • 240420Z 01003KT 9999 FEW011 BKN039 06/04 Q1029 TEMPO BKN013

METARs EXPIRÉS :
  • 240350Z 02004KT 350V050 9999 SCT011 BKN036 06/05 Q1029 TEMPO BKN013
  • 240320Z 02005KT 9999 SCT013 BKN030 06/05 Q1029 TEMPO BKN013
  • 240250Z 02004KT 9999 SCT025 BKN036 06/04 Q1029 NOSIG
  • 240220Z 01004KT 9999 BKN033 06/04 Q1029 NOSIG
  • 240150Z 01004KT 9999 SCT018 BKN033 07/04 Q1029 NOSIG

TAF TAF EBBR
Valide du 24 à 00h jusqu'au 25 à 06h UTC


232315Z 2400/2506 02005KT 9999 FEW022 BKN035
BECMG 2502/2504 30010KT
PROB30
TEMPO 2504/2506 SHRA
Pas de NOTAMs connus pour ce terrain.



MET'MAP, la Météo Aéronautique d'un coup d'oeil ! - Copyright ORBIFLY Décembre 2007 - Disclaimer

ORBIFLY MET'MAP TEAM :

Programmation & Développement : Alexandra Zaïnal
Conception & Développement : Baudouin d'Aumeries
Co-Programmation & Développement : Marc-Olivier Méhu
Soutien technique & logistique : Manuel Goepfert

Contact : metmap@orbifly.com




SOURCES & CREDITS :

   NOAA